sensor_id;sensor_type;location;lat;lon;timestamp;P1;durP1;ratioP1;P2;durP2;ratioP2
79687;SDS011;69155;49.464;2.108;2023-05-07T00:00:34;13.10;;;4.80;;
79687;SDS011;69155;49.464;2.108;2023-05-07T00:02:59;8.77;;;4.83;;
79687;SDS011;69155;49.464;2.108;2023-05-07T00:05:24;6.70;;;4.32;;
79687;SDS011;69155;49.464;2.108;2023-05-07T00:07:50;10.70;;;4.60;;
79687;SDS011;69155;49.464;2.108;2023-05-07T00:10:17;14.80;;;5.22;;
79687;SDS011;69155;49.464;2.108;2023-05-07T00:12:42;12.30;;;5.45;;
79687;SDS011;69155;49.464;2.108;2023-05-07T00:15:08;9.50;;;4.87;;
79687;SDS011;69155;49.464;2.108;2023-05-07T00:17:33;8.82;;;4.70;;
79687;SDS011;69155;49.464;2.108;2023-05-07T00:19:58;7.47;;;4.30;;
79687;SDS011;69155;49.464;2.108;2023-05-07T00:22:23;10.17;;;5.07;;
79687;SDS011;69155;49.464;2.108;2023-05-07T00:24:49;9.20;;;4.80;;
79687;SDS011;69155;49.464;2.108;2023-05-07T00:27:14;11.63;;;5.10;;
79687;SDS011;69155;49.464;2.108;2023-05-07T00:29:39;17.40;;;5.60;;
79687;SDS011;69155;49.464;2.108;2023-05-07T00:32:04;12.60;;;5.80;;
79687;SDS011;69155;49.464;2.108;2023-05-07T00:34:30;12.77;;;6.30;;
79687;SDS011;69155;49.464;2.108;2023-05-07T00:36:55;10.30;;;5.63;;
79687;SDS011;69155;49.464;2.108;2023-05-07T00:39:20;15.37;;;5.90;;
79687;SDS011;69155;49.464;2.108;2023-05-07T00:41:45;12.13;;;5.80;;
79687;SDS011;69155;49.464;2.108;2023-05-07T00:44:11;12.45;;;5.35;;
79687;SDS011;69155;49.464;2.108;2023-05-07T00:46:36;10.98;;;5.57;;
79687;SDS011;69155;49.464;2.108;2023-05-07T00:49:01;9.07;;;5.05;;
79687;SDS011;69155;49.464;2.108;2023-05-07T00:51:27;7.55;;;5.00;;
79687;SDS011;69155;49.464;2.108;2023-05-07T00:53:52;7.63;;;5.00;;
79687;SDS011;69155;49.464;2.108;2023-05-07T00:56:18;10.63;;;5.55;;
79687;SDS011;69155;49.464;2.108;2023-05-07T00:58:43;8.75;;;4.75;;
79687;SDS011;69155;49.464;2.108;2023-05-07T01:01:11;10.50;;;5.30;;
79687;SDS011;69155;49.464;2.108;2023-05-07T01:03:37;7.63;;;4.72;;
79687;SDS011;69155;49.464;2.108;2023-05-07T01:06:02;11.10;;;4.83;;
79687;SDS011;69155;49.464;2.108;2023-05-07T01:08:28;8.82;;;5.25;;
79687;SDS011;69155;49.464;2.108;2023-05-07T01:10:56;11.55;;;5.63;;
79687;SDS011;69155;49.464;2.108;2023-05-07T01:13:22;11.43;;;5.75;;
79687;SDS011;69155;49.464;2.108;2023-05-07T01:15:47;13.05;;;5.68;;
79687;SDS011;69155;49.464;2.108;2023-05-07T01:18:13;14.47;;;6.10;;
79687;SDS011;69155;49.464;2.108;2023-05-07T01:20:38;12.55;;;6.28;;
79687;SDS011;69155;49.464;2.108;2023-05-07T01:23:03;12.03;;;6.53;;
79687;SDS011;69155;49.464;2.108;2023-05-07T01:25:28;10.33;;;5.77;;
79687;SDS011;69155;49.464;2.108;2023-05-07T01:27:54;14.45;;;5.82;;
79687;SDS011;69155;49.464;2.108;2023-05-07T01:30:20;7.43;;;5.43;;
79687;SDS011;69155;49.464;2.108;2023-05-07T01:35:24;9.43;;;5.15;;
79687;SDS011;69155;49.464;2.108;2023-05-07T01:37:50;11.20;;;5.30;;
79687;SDS011;69155;49.464;2.108;2023-05-07T01:40:15;14.93;;;5.45;;
79687;SDS011;69155;49.464;2.108;2023-05-07T01:42:41;14.85;;;5.93;;
79687;SDS011;69155;49.464;2.108;2023-05-07T01:45:07;8.68;;;5.45;;
79687;SDS011;69155;49.464;2.108;2023-05-07T01:47:33;12.20;;;6.10;;
79687;SDS011;69155;49.464;2.108;2023-05-07T01:49:58;11.67;;;6.23;;
79687;SDS011;69155;49.464;2.108;2023-05-07T01:52:23;14.23;;;6.40;;
79687;SDS011;69155;49.464;2.108;2023-05-07T01:54:50;9.85;;;5.78;;
79687;SDS011;69155;49.464;2.108;2023-05-07T01:57:15;14.37;;;5.53;;
79687;SDS011;69155;49.464;2.108;2023-05-07T01:59:40;10.70;;;5.80;;
79687;SDS011;69155;49.464;2.108;2023-05-07T02:02:05;12.37;;;7.00;;
79687;SDS011;69155;49.464;2.108;2023-05-07T02:04:31;12.87;;;6.97;;
79687;SDS011;69155;49.464;2.108;2023-05-07T02:06:56;14.23;;;6.82;;
79687;SDS011;69155;49.464;2.108;2023-05-07T02:09:21;15.33;;;6.83;;
79687;SDS011;69155;49.464;2.108;2023-05-07T02:11:47;10.80;;;5.93;;
79687;SDS011;69155;49.464;2.108;2023-05-07T02:14:13;11.87;;;6.80;;
79687;SDS011;69155;49.464;2.108;2023-05-07T02:16:38;12.00;;;6.40;;
79687;SDS011;69155;49.464;2.108;2023-05-07T02:19:03;13.03;;;7.00;;
79687;SDS011;69155;49.464;2.108;2023-05-07T02:21:28;12.47;;;7.07;;
79687;SDS011;69155;49.464;2.108;2023-05-07T02:23:53;10.27;;;7.17;;
79687;SDS011;69155;49.464;2.108;2023-05-07T02:26:19;9.67;;;5.83;;
79687;SDS011;69155;49.464;2.108;2023-05-07T02:28:44;11.37;;;6.53;;
79687;SDS011;69155;49.464;2.108;2023-05-07T02:31:09;14.10;;;6.57;;
79687;SDS011;69155;49.464;2.108;2023-05-07T02:33:35;10.80;;;5.97;;
79687;SDS011;69155;49.464;2.108;2023-05-07T02:36:05;9.90;;;7.10;;
79687;SDS011;69155;49.464;2.108;2023-05-07T02:38:30;12.55;;;7.13;;
79687;SDS011;69155;49.464;2.108;2023-05-07T02:40:55;11.53;;;6.53;;
79687;SDS011;69155;49.464;2.108;2023-05-07T02:43:20;13.53;;;7.13;;
79687;SDS011;69155;49.464;2.108;2023-05-07T02:45:45;10.80;;;6.73;;
79687;SDS011;69155;49.464;2.108;2023-05-07T02:48:11;10.97;;;6.57;;
79687;SDS011;69155;49.464;2.108;2023-05-07T02:50:36;12.73;;;6.63;;
79687;SDS011;69155;49.464;2.108;2023-05-07T02:53:01;12.53;;;6.80;;
79687;SDS011;69155;49.464;2.108;2023-05-07T02:55:26;12.40;;;7.47;;
79687;SDS011;69155;49.464;2.108;2023-05-07T02:57:51;17.57;;;7.03;;
79687;SDS011;69155;49.464;2.108;2023-05-07T03:00:17;10.37;;;7.00;;
79687;SDS011;69155;49.464;2.108;2023-05-07T03:02:43;10.05;;;6.43;;
79687;SDS011;69155;49.464;2.108;2023-05-07T03:05:08;10.93;;;7.10;;
79687;SDS011;69155;49.464;2.108;2023-05-07T03:07:34;16.35;;;7.43;;
79687;SDS011;69155;49.464;2.108;2023-05-07T03:10:00;17.13;;;7.78;;
79687;SDS011;69155;49.464;2.108;2023-05-07T03:12:25;10.73;;;6.83;;
79687;SDS011;69155;49.464;2.108;2023-05-07T03:14:50;9.27;;;6.80;;
79687;SDS011;69155;49.464;2.108;2023-05-07T03:17:15;14.53;;;7.10;;
79687;SDS011;69155;49.464;2.108;2023-05-07T03:19:41;13.93;;;7.10;;
79687;SDS011;69155;49.464;2.108;2023-05-07T03:22:06;14.73;;;7.83;;
79687;SDS011;69155;49.464;2.108;2023-05-07T03:24:31;13.33;;;7.50;;
79687;SDS011;69155;49.464;2.108;2023-05-07T03:26:56;10.07;;;6.77;;
79687;SDS011;69155;49.464;2.108;2023-05-07T03:29:22;12.70;;;7.97;;
79687;SDS011;69155;49.464;2.108;2023-05-07T03:31:47;11.90;;;6.87;;
79687;SDS011;69155;49.464;2.108;2023-05-07T03:34:13;13.33;;;7.33;;
79687;SDS011;69155;49.464;2.108;2023-05-07T03:36:38;11.50;;;7.47;;
79687;SDS011;69155;49.464;2.108;2023-05-07T03:39:05;11.30;;;7.35;;
79687;SDS011;69155;49.464;2.108;2023-05-07T03:41:34;12.73;;;7.33;;
79687;SDS011;69155;49.464;2.108;2023-05-07T03:43:59;12.80;;;7.68;;
79687;SDS011;69155;49.464;2.108;2023-05-07T03:46:24;16.97;;;8.40;;
79687;SDS011;69155;49.464;2.108;2023-05-07T03:48:51;12.30;;;7.18;;
79687;SDS011;69155;49.464;2.108;2023-05-07T03:51:16;10.03;;;6.80;;
79687;SDS011;69155;49.464;2.108;2023-05-07T03:53:41;12.77;;;7.57;;
79687;SDS011;69155;49.464;2.108;2023-05-07T03:56:06;14.13;;;6.93;;
79687;SDS011;69155;49.464;2.108;2023-05-07T03:58:31;9.47;;;7.30;;
79687;SDS011;69155;49.464;2.108;2023-05-07T04:00:57;13.57;;;7.03;;
79687;SDS011;69155;49.464;2.108;2023-05-07T04:03:22;12.33;;;7.63;;
79687;SDS011;69155;49.464;2.108;2023-05-07T04:05:47;13.83;;;8.60;;
79687;SDS011;69155;49.464;2.108;2023-05-07T04:08:12;11.67;;;9.00;;
79687;SDS011;69155;49.464;2.108;2023-05-07T04:10:41;13.53;;;8.40;;
79687;SDS011;69155;49.464;2.108;2023-05-07T04:13:06;13.00;;;8.10;;
79687;SDS011;69155;49.464;2.108;2023-05-07T04:15:31;17.45;;;8.27;;
79687;SDS011;69155;49.464;2.108;2023-05-07T04:17:56;14.00;;;8.30;;
79687;SDS011;69155;49.464;2.108;2023-05-07T04:20:22;16.63;;;8.15;;
79687;SDS011;69155;49.464;2.108;2023-05-07T04:22:48;12.60;;;8.90;;
79687;SDS011;69155;49.464;2.108;2023-05-07T04:25:13;13.87;;;7.67;;
79687;SDS011;69155;49.464;2.108;2023-05-07T04:27:38;15.03;;;7.97;;
79687;SDS011;69155;49.464;2.108;2023-05-07T04:30:04;10.80;;;8.00;;
79687;SDS011;69155;49.464;2.108;2023-05-07T04:32:29;16.67;;;9.05;;
79687;SDS011;69155;49.464;2.108;2023-05-07T04:34:55;12.38;;;8.77;;
79687;SDS011;69155;49.464;2.108;2023-05-07T04:37:20;16.13;;;8.57;;
79687;SDS011;69155;49.464;2.108;2023-05-07T04:39:46;14.75;;;8.23;;
79687;SDS011;69155;49.464;2.108;2023-05-07T04:42:14;19.47;;;8.20;;
79687;SDS011;69155;49.464;2.108;2023-05-07T04:44:39;13.13;;;7.93;;
79687;SDS011;69155;49.464;2.108;2023-05-07T04:47:05;9.95;;;7.82;;
79687;SDS011;69155;49.464;2.108;2023-05-07T04:49:30;16.85;;;8.40;;
79687;SDS011;69155;49.464;2.108;2023-05-07T04:51:55;12.90;;;7.87;;
79687;SDS011;69155;49.464;2.108;2023-05-07T04:54:20;16.02;;;9.23;;
79687;SDS011;69155;49.464;2.108;2023-05-07T04:56:46;14.97;;;8.53;;
79687;SDS011;69155;49.464;2.108;2023-05-07T04:59:11;14.67;;;7.70;;
79687;SDS011;69155;49.464;2.108;2023-05-07T05:01:36;17.77;;;9.07;;
79687;SDS011;69155;49.464;2.108;2023-05-07T05:04:01;9.63;;;7.30;;
79687;SDS011;69155;49.464;2.108;2023-05-07T05:06:27;12.23;;;8.00;;
79687;SDS011;69155;49.464;2.108;2023-05-07T05:08:52;10.03;;;8.03;;
79687;SDS011;69155;49.464;2.108;2023-05-07T05:11:20;13.93;;;8.77;;
79687;SDS011;69155;49.464;2.108;2023-05-07T05:13:45;19.42;;;9.60;;
79687;SDS011;69155;49.464;2.108;2023-05-07T05:16:13;16.95;;;9.57;;
79687;SDS011;69155;49.464;2.108;2023-05-07T05:18:39;13.20;;;8.10;;
79687;SDS011;69155;49.464;2.108;2023-05-07T05:21:11;10.05;;;7.68;;
79687;SDS011;69155;49.464;2.108;2023-05-07T05:23:37;11.52;;;7.68;;
79687;SDS011;69155;49.464;2.108;2023-05-07T05:26:02;16.13;;;9.23;;
79687;SDS011;69155;49.464;2.108;2023-05-07T05:28:27;15.10;;;8.33;;
79687;SDS011;69155;49.464;2.108;2023-05-07T05:30:53;13.25;;;8.52;;
79687;SDS011;69155;49.464;2.108;2023-05-07T05:33:18;14.48;;;8.07;;
79687;SDS011;69155;49.464;2.108;2023-05-07T05:35:43;14.53;;;9.33;;
79687;SDS011;69155;49.464;2.108;2023-05-07T05:38:14;17.98;;;9.20;;
79687;SDS011;69155;49.464;2.108;2023-05-07T05:40:39;16.38;;;10.35;;
79687;SDS011;69155;49.464;2.108;2023-05-07T05:43:05;17.53;;;10.27;;
79687;SDS011;69155;49.464;2.108;2023-05-07T05:45:30;12.93;;;8.60;;
79687;SDS011;69155;49.464;2.108;2023-05-07T05:47:56;17.13;;;8.80;;
79687;SDS011;69155;49.464;2.108;2023-05-07T05:50:21;11.93;;;7.30;;
79687;SDS011;69155;49.464;2.108;2023-05-07T05:52:46;14.97;;;7.80;;
79687;SDS011;69155;49.464;2.108;2023-05-07T05:55:12;9.60;;;7.95;;
79687;SDS011;69155;49.464;2.108;2023-05-07T05:57:37;67.77;;;10.40;;
79687;SDS011;69155;49.464;2.108;2023-05-07T06:00:03;12.07;;;8.27;;
79687;SDS011;69155;49.464;2.108;2023-05-07T06:02:29;12.45;;;8.98;;
79687;SDS011;69155;49.464;2.108;2023-05-07T06:04:54;18.20;;;8.55;;
79687;SDS011;69155;49.464;2.108;2023-05-07T06:07:20;15.30;;;7.67;;
79687;SDS011;69155;49.464;2.108;2023-05-07T06:09:45;12.77;;;8.27;;
79687;SDS011;69155;49.464;2.108;2023-05-07T06:12:11;12.27;;;7.80;;
79687;SDS011;69155;49.464;2.108;2023-05-07T06:14:36;10.88;;;8.18;;
79687;SDS011;69155;49.464;2.108;2023-05-07T06:17:01;12.80;;;8.43;;
79687;SDS011;69155;49.464;2.108;2023-05-07T06:19:27;21.70;;;9.10;;
79687;SDS011;69155;49.464;2.108;2023-05-07T06:21:53;12.45;;;7.97;;
79687;SDS011;69155;49.464;2.108;2023-05-07T06:24:18;15.20;;;7.63;;
79687;SDS011;69155;49.464;2.108;2023-05-07T06:26:43;11.23;;;8.10;;
79687;SDS011;69155;49.464;2.108;2023-05-07T06:29:09;14.37;;;8.20;;
79687;SDS011;69155;49.464;2.108;2023-05-07T06:31:34;16.48;;;8.43;;
79687;SDS011;69155;49.464;2.108;2023-05-07T06:33:59;11.70;;;8.27;;
79687;SDS011;69155;49.464;2.108;2023-05-07T06:36:27;15.15;;;8.45;;
79687;SDS011;69155;49.464;2.108;2023-05-07T06:38:52;14.50;;;8.63;;
79687;SDS011;69155;49.464;2.108;2023-05-07T06:41:17;14.00;;;8.30;;
79687;SDS011;69155;49.464;2.108;2023-05-07T06:43:42;14.73;;;8.47;;
79687;SDS011;69155;49.464;2.108;2023-05-07T06:46:07;15.60;;;8.20;;
79687;SDS011;69155;49.464;2.108;2023-05-07T06:48:33;19.77;;;8.87;;
79687;SDS011;69155;49.464;2.108;2023-05-07T06:50:58;21.93;;;9.33;;
79687;SDS011;69155;49.464;2.108;2023-05-07T06:53:23;15.30;;;8.37;;
79687;SDS011;69155;49.464;2.108;2023-05-07T06:55:52;15.15;;;8.70;;
79687;SDS011;69155;49.464;2.108;2023-05-07T06:58:17;16.45;;;9.90;;
79687;SDS011;69155;49.464;2.108;2023-05-07T07:00:42;36.00;;;11.27;;
79687;SDS011;69155;49.464;2.108;2023-05-07T07:03:08;24.87;;;10.23;;
79687;SDS011;69155;49.464;2.108;2023-05-07T07:05:33;24.90;;;9.07;;
79687;SDS011;69155;49.464;2.108;2023-05-07T07:07:58;15.83;;;10.23;;
79687;SDS011;69155;49.464;2.108;2023-05-07T07:10:23;16.07;;;9.83;;
79687;SDS011;69155;49.464;2.108;2023-05-07T07:12:49;17.67;;;11.00;;
79687;SDS011;69155;49.464;2.108;2023-05-07T07:15:14;16.00;;;9.60;;
79687;SDS011;69155;49.464;2.108;2023-05-07T07:17:40;14.90;;;9.57;;
79687;SDS011;69155;49.464;2.108;2023-05-07T07:20:05;19.53;;;11.10;;
79687;SDS011;69155;49.464;2.108;2023-05-07T07:22:30;16.10;;;10.35;;
79687;SDS011;69155;49.464;2.108;2023-05-07T07:24:56;18.03;;;11.73;;
79687;SDS011;69155;49.464;2.108;2023-05-07T07:27:21;17.53;;;10.50;;
79687;SDS011;69155;49.464;2.108;2023-05-07T07:29:46;24.27;;;12.53;;
79687;SDS011;69155;49.464;2.108;2023-05-07T07:32:14;24.02;;;11.98;;
79687;SDS011;69155;49.464;2.108;2023-05-07T07:34:39;19.03;;;12.07;;
79687;SDS011;69155;49.464;2.108;2023-05-07T07:37:05;21.25;;;11.30;;
79687;SDS011;69155;49.464;2.108;2023-05-07T07:39:34;17.85;;;11.35;;
79687;SDS011;69155;49.464;2.108;2023-05-07T07:42:00;24.33;;;11.98;;
79687;SDS011;69155;49.464;2.108;2023-05-07T07:44:25;21.67;;;13.15;;
79687;SDS011;69155;49.464;2.108;2023-05-07T07:46:50;19.55;;;13.02;;
79687;SDS011;69155;49.464;2.108;2023-05-07T07:49:16;18.20;;;10.87;;
79687;SDS011;69155;49.464;2.108;2023-05-07T07:51:41;18.02;;;11.80;;
79687;SDS011;69155;49.464;2.108;2023-05-07T07:54:06;20.38;;;11.50;;
79687;SDS011;69155;49.464;2.108;2023-05-07T07:56:32;17.57;;;11.40;;
79687;SDS011;69155;49.464;2.108;2023-05-07T07:58:58;20.15;;;12.50;;
79687;SDS011;69155;49.464;2.108;2023-05-07T08:01:23;17.20;;;11.80;;
79687;SDS011;69155;49.464;2.108;2023-05-07T08:03:49;20.53;;;12.93;;
79687;SDS011;69155;49.464;2.108;2023-05-07T08:06:14;17.17;;;12.23;;
79687;SDS011;69155;49.464;2.108;2023-05-07T08:08:39;27.27;;;14.03;;
79687;SDS011;69155;49.464;2.108;2023-05-07T08:11:04;25.42;;;12.98;;
79687;SDS011;69155;49.464;2.108;2023-05-07T08:13:30;25.10;;;12.87;;
79687;SDS011;69155;49.464;2.108;2023-05-07T08:15:55;23.50;;;13.90;;
79687;SDS011;69155;49.464;2.108;2023-05-07T08:18:20;52.83;;;14.40;;
79687;SDS011;69155;49.464;2.108;2023-05-07T08:20:45;32.80;;;14.27;;
79687;SDS011;69155;49.464;2.108;2023-05-07T08:23:11;26.40;;;11.88;;
79687;SDS011;69155;49.464;2.108;2023-05-07T08:25:36;28.43;;;13.10;;
79687;SDS011;69155;49.464;2.108;2023-05-07T08:28:02;29.27;;;12.52;;
79687;SDS011;69155;49.464;2.108;2023-05-07T08:30:28;19.48;;;12.50;;
79687;SDS011;69155;49.464;2.108;2023-05-07T08:32:56;34.07;;;14.23;;
79687;SDS011;69155;49.464;2.108;2023-05-07T08:35:21;20.67;;;14.00;;
79687;SDS011;69155;49.464;2.108;2023-05-07T08:37:46;19.73;;;12.67;;
79687;SDS011;69155;49.464;2.108;2023-05-07T08:40:12;21.90;;;13.23;;
79687;SDS011;69155;49.464;2.108;2023-05-07T08:42:37;20.23;;;12.53;;
79687;SDS011;69155;49.464;2.108;2023-05-07T08:45:03;19.25;;;14.15;;
79687;SDS011;69155;49.464;2.108;2023-05-07T08:47:32;19.10;;;12.60;;
79687;SDS011;69155;49.464;2.108;2023-05-07T08:49:59;17.50;;;12.88;;
79687;SDS011;69155;49.464;2.108;2023-05-07T08:52:24;17.35;;;12.82;;
79687;SDS011;69155;49.464;2.108;2023-05-07T08:54:50;18.35;;;11.40;;
79687;SDS011;69155;49.464;2.108;2023-05-07T08:57:15;21.20;;;11.87;;
79687;SDS011;69155;49.464;2.108;2023-05-07T08:59:40;45.23;;;12.63;;
79687;SDS011;69155;49.464;2.108;2023-05-07T09:02:09;23.92;;;13.23;;
79687;SDS011;69155;49.464;2.108;2023-05-07T09:04:35;19.55;;;12.18;;
79687;SDS011;69155;49.464;2.108;2023-05-07T09:07:00;17.45;;;11.52;;
79687;SDS011;69155;49.464;2.108;2023-05-07T09:09:31;20.02;;;12.23;;
79687;SDS011;69155;49.464;2.108;2023-05-07T09:11:57;27.60;;;12.85;;
79687;SDS011;69155;49.464;2.108;2023-05-07T09:14:24;17.13;;;12.05;;
79687;SDS011;69155;49.464;2.108;2023-05-07T09:16:51;22.20;;;12.93;;
79687;SDS011;69155;49.464;2.108;2023-05-07T09:19:21;17.08;;;11.18;;
79687;SDS011;69155;49.464;2.108;2023-05-07T09:21:46;18.98;;;10.15;;
79687;SDS011;69155;49.464;2.108;2023-05-07T09:24:12;14.30;;;10.47;;
79687;SDS011;69155;49.464;2.108;2023-05-07T09:26:40;23.55;;;12.45;;
79687;SDS011;69155;49.464;2.108;2023-05-07T09:29:08;19.88;;;12.27;;
79687;SDS011;69155;49.464;2.108;2023-05-07T09:31:38;36.33;;;12.40;;
79687;SDS011;69155;49.464;2.108;2023-05-07T09:34:04;36.40;;;13.13;;
79687;SDS011;69155;49.464;2.108;2023-05-07T09:36:29;623.40;;;561.25;;
79687;SDS011;69155;49.464;2.108;2023-05-07T09:38:56;358.23;;;320.83;;
79687;SDS011;69155;49.464;2.108;2023-05-07T09:41:24;175.30;;;155.50;;
79687;SDS011;69155;49.464;2.108;2023-05-07T09:43:53;1325.90;;;999.90;;
79687;SDS011;69155;49.464;2.108;2023-05-07T09:46:18;102.05;;;91.28;;
79687;SDS011;69155;49.464;2.108;2023-05-07T09:48:49;58.65;;;52.78;;
79687;SDS011;69155;49.464;2.108;2023-05-07T09:51:25;802.83;;;545.83;;
79687;SDS011;69155;49.464;2.108;2023-05-07T09:53:53;249.90;;;199.55;;
79687;SDS011;69155;49.464;2.108;2023-05-07T09:56:18;185.13;;;156.57;;
79687;SDS011;69155;49.464;2.108;2023-05-07T09:58:45;56.55;;;44.13;;
79687;SDS011;69155;49.464;2.108;2023-05-07T10:01:10;36.90;;;29.90;;
79687;SDS011;69155;49.464;2.108;2023-05-07T10:03:36;496.33;;;418.98;;
79687;SDS011;69155;49.464;2.108;2023-05-07T10:06:03;25.40;;;19.30;;
79687;SDS011;69155;49.464;2.108;2023-05-07T10:08:31;293.83;;;191.63;;
79687;SDS011;69155;49.464;2.108;2023-05-07T10:10:57;523.33;;;352.83;;
79687;SDS011;69155;49.464;2.108;2023-05-07T10:13:22;251.90;;;143.30;;
79687;SDS011;69155;49.464;2.108;2023-05-07T10:15:48;973.90;;;678.20;;
79687;SDS011;69155;49.464;2.108;2023-05-07T10:18:14;568.00;;;381.98;;
79687;SDS011;69155;49.464;2.108;2023-05-07T10:20:40;806.05;;;521.35;;
79687;SDS011;69155;49.464;2.108;2023-05-07T10:23:06;1333.03;;;795.35;;
79687;SDS011;69155;49.464;2.108;2023-05-07T10:25:33;1188.43;;;783.10;;
79687;SDS011;69155;49.464;2.108;2023-05-07T10:28:00;413.25;;;293.05;;
79687;SDS011;69155;49.464;2.108;2023-05-07T10:30:36;358.85;;;232.27;;
79687;SDS011;69155;49.464;2.108;2023-05-07T10:33:04;54.03;;;38.53;;
79687;SDS011;69155;49.464;2.108;2023-05-07T10:35:37;132.13;;;50.97;;
79687;SDS011;69155;49.464;2.108;2023-05-07T10:38:04;56.05;;;33.60;;
79687;SDS011;69155;49.464;2.108;2023-05-07T10:40:30;9.23;;;7.45;;
79687;SDS011;69155;49.464;2.108;2023-05-07T10:42:59;13.65;;;6.47;;
79687;SDS011;69155;49.464;2.108;2023-05-07T10:45:25;22.00;;;5.88;;
79687;SDS011;69155;49.464;2.108;2023-05-07T10:48:06;8.38;;;5.68;;
79687;SDS011;69155;49.464;2.108;2023-05-07T10:50:32;7.00;;;4.28;;
79687;SDS011;69155;49.464;2.108;2023-05-07T10:53:39;5.33;;;4.63;;
79687;SDS011;69155;49.464;2.108;2023-05-07T10:55:49;16.38;;;4.97;;
79687;SDS011;69155;49.464;2.108;2023-05-07T11:00:46;6.82;;;3.58;;
79687;SDS011;69155;49.464;2.108;2023-05-07T11:03:12;5.50;;;3.75;;
79687;SDS011;69155;49.464;2.108;2023-05-07T11:05:37;10.25;;;3.90;;
79687;SDS011;69155;49.464;2.108;2023-05-07T11:08:03;9.85;;;4.88;;
79687;SDS011;69155;49.464;2.108;2023-05-07T11:13:14;5.45;;;3.17;;
79687;SDS011;69155;49.464;2.108;2023-05-07T11:15:40;4.55;;;2.80;;
79687;SDS011;69155;49.464;2.108;2023-05-07T11:18:06;5.53;;;2.60;;
79687;SDS011;69155;49.464;2.108;2023-05-07T11:25:59;4.25;;;2.80;;
79687;SDS011;69155;49.464;2.108;2023-05-07T11:28:25;46.28;;;3.97;;
79687;SDS011;69155;49.464;2.108;2023-05-07T11:30:51;14.13;;;4.53;;
79687;SDS011;69155;49.464;2.108;2023-05-07T11:33:17;4.45;;;3.30;;
79687;SDS011;69155;49.464;2.108;2023-05-07T11:35:42;5.72;;;2.95;;
79687;SDS011;69155;49.464;2.108;2023-05-07T11:38:07;5.43;;;2.80;;
79687;SDS011;69155;49.464;2.108;2023-05-07T11:40:33;4.57;;;3.08;;
79687;SDS011;69155;49.464;2.108;2023-05-07T11:42:58;4.30;;;2.72;;
79687;SDS011;69155;49.464;2.108;2023-05-07T11:45:24;4.43;;;2.67;;
79687;SDS011;69155;49.464;2.108;2023-05-07T11:47:50;4.05;;;3.28;;
79687;SDS011;69155;49.464;2.108;2023-05-07T11:50:15;3.77;;;2.73;;
79687;SDS011;69155;49.464;2.108;2023-05-07T11:52:49;4.13;;;3.10;;
79687;SDS011;69155;49.464;2.108;2023-05-07T11:55:15;5.47;;;3.00;;
79687;SDS011;69155;49.464;2.108;2023-05-07T11:57:43;11.00;;;3.03;;
79687;SDS011;69155;49.464;2.108;2023-05-07T12:00:08;7.15;;;3.15;;
79687;SDS011;69155;49.464;2.108;2023-05-07T12:02:34;6.93;;;3.15;;
79687;SDS011;69155;49.464;2.108;2023-05-07T12:05:00;6.60;;;3.08;;
79687;SDS011;69155;49.464;2.108;2023-05-07T12:07:25;4.55;;;2.35;;
79687;SDS011;69155;49.464;2.108;2023-05-07T12:09:50;9.03;;;2.60;;
79687;SDS011;69155;49.464;2.108;2023-05-07T12:12:16;12.20;;;2.53;;
79687;SDS011;69155;49.464;2.108;2023-05-07T12:14:43;5.07;;;2.75;;
79687;SDS011;69155;49.464;2.108;2023-05-07T12:17:09;2.45;;;1.90;;
79687;SDS011;69155;49.464;2.108;2023-05-07T12:19:35;5.22;;;2.00;;
79687;SDS011;69155;49.464;2.108;2023-05-07T12:22:03;2.70;;;1.92;;
79687;SDS011;69155;49.464;2.108;2023-05-07T12:24:41;32.47;;;3.25;;
79687;SDS011;69155;49.464;2.108;2023-05-07T12:27:06;15.55;;;1.95;;
79687;SDS011;69155;49.464;2.108;2023-05-07T12:29:31;5.43;;;1.77;;
79687;SDS011;69155;49.464;2.108;2023-05-07T12:31:57;13.20;;;2.10;;
79687;SDS011;69155;49.464;2.108;2023-05-07T12:34:22;37.80;;;3.30;;
79687;SDS011;69155;49.464;2.108;2023-05-07T12:36:47;4.40;;;1.40;;
79687;SDS011;69155;49.464;2.108;2023-05-07T12:39:12;2.17;;;1.60;;
79687;SDS011;69155;49.464;2.108;2023-05-07T12:44:21;4.18;;;1.67;;
79687;SDS011;69155;49.464;2.108;2023-05-07T12:46:49;4.47;;;1.98;;
79687;SDS011;69155;49.464;2.108;2023-05-07T12:49:14;3.70;;;2.43;;
79687;SDS011;69155;49.464;2.108;2023-05-07T12:51:39;3.80;;;1.88;;
79687;SDS011;69155;49.464;2.108;2023-05-07T12:54:05;1.95;;;1.30;;
79687;SDS011;69155;49.464;2.108;2023-05-07T12:56:31;7.60;;;1.60;;
79687;SDS011;69155;49.464;2.108;2023-05-07T12:58:59;3.72;;;1.50;;
79687;SDS011;69155;49.464;2.108;2023-05-07T13:01:28;2.33;;;1.43;;
79687;SDS011;69155;49.464;2.108;2023-05-07T13:03:53;2.35;;;1.30;;
79687;SDS011;69155;49.464;2.108;2023-05-07T13:06:18;5.20;;;1.70;;
79687;SDS011;69155;49.464;2.108;2023-05-07T13:08:44;1.83;;;1.37;;
79687;SDS011;69155;49.464;2.108;2023-05-07T13:11:09;1.50;;;1.40;;
79687;SDS011;69155;49.464;2.108;2023-05-07T13:13:39;2.22;;;1.38;;
79687;SDS011;69155;49.464;2.108;2023-05-07T13:16:05;8.35;;;1.50;;
79687;SDS011;69155;49.464;2.108;2023-05-07T13:18:31;10.82;;;1.80;;
79687;SDS011;69155;49.464;2.108;2023-05-07T13:20:56;40.65;;;3.25;;
79687;SDS011;69155;49.464;2.108;2023-05-07T13:23:22;5.87;;;1.60;;
79687;SDS011;69155;49.464;2.108;2023-05-07T13:25:47;2.37;;;1.27;;
79687;SDS011;69155;49.464;2.108;2023-05-07T13:28:12;2.42;;;1.38;;
79687;SDS011;69155;49.464;2.108;2023-05-07T13:30:38;1.75;;;1.30;;
79687;SDS011;69155;49.464;2.108;2023-05-07T13:33:03;1.80;;;1.35;;
79687;SDS011;69155;49.464;2.108;2023-05-07T13:35:28;1.50;;;1.40;;
79687;SDS011;69155;49.464;2.108;2023-05-07T13:37:56;2.78;;;1.40;;
79687;SDS011;69155;49.464;2.108;2023-05-07T13:40:22;2.33;;;1.20;;
79687;SDS011;69155;49.464;2.108;2023-05-07T13:42:47;6.93;;;1.67;;
79687;SDS011;69155;49.464;2.108;2023-05-07T13:45:13;5.03;;;1.40;;
79687;SDS011;69155;49.464;2.108;2023-05-07T13:47:39;3.25;;;1.50;;
79687;SDS011;69155;49.464;2.108;2023-05-07T13:50:04;2.60;;;1.40;;
79687;SDS011;69155;49.464;2.108;2023-05-07T13:52:30;3.28;;;1.60;;
79687;SDS011;69155;49.464;2.108;2023-05-07T13:54:55;1.40;;;1.30;;
79687;SDS011;69155;49.464;2.108;2023-05-07T13:57:21;11.20;;;1.67;;
79687;SDS011;69155;49.464;2.108;2023-05-07T13:59:46;3.10;;;1.50;;
79687;SDS011;69155;49.464;2.108;2023-05-07T14:02:11;10.00;;;2.30;;
79687;SDS011;69155;49.464;2.108;2023-05-07T14:04:37;6.77;;;1.60;;
79687;SDS011;69155;49.464;2.108;2023-05-07T14:07:02;2.90;;;1.40;;
79687;SDS011;69155;49.464;2.108;2023-05-07T14:09:27;3.20;;;1.70;;
79687;SDS011;69155;49.464;2.108;2023-05-07T14:11:53;5.07;;;1.50;;
79687;SDS011;69155;49.464;2.108;2023-05-07T14:14:18;9.30;;;1.60;;
79687;SDS011;69155;49.464;2.108;2023-05-07T14:16:43;4.63;;;1.77;;
79687;SDS011;69155;49.464;2.108;2023-05-07T14:19:09;5.47;;;2.38;;
79687;SDS011;69155;49.464;2.108;2023-05-07T14:21:35;2.85;;;2.00;;
79687;SDS011;69155;49.464;2.108;2023-05-07T14:24:00;5.37;;;1.80;;
79687;SDS011;69155;49.464;2.108;2023-05-07T14:26:25;6.40;;;2.15;;
79687;SDS011;69155;49.464;2.108;2023-05-07T14:28:52;4.57;;;2.10;;
79687;SDS011;69155;49.464;2.108;2023-05-07T14:31:17;3.50;;;2.53;;
79687;SDS011;69155;49.464;2.108;2023-05-07T14:33:42;3.03;;;2.10;;
79687;SDS011;69155;49.464;2.108;2023-05-07T14:36:07;2.20;;;1.80;;
79687;SDS011;69155;49.464;2.108;2023-05-07T14:38:35;5.30;;;2.10;;
79687;SDS011;69155;49.464;2.108;2023-05-07T14:41:00;2.65;;;1.90;;